createdAt,value
2022-08-18T00:01:32.652Z,6.74
2022-08-18T00:06:39.554Z,6.57
2022-08-18T00:11:49.323Z,6.57
2022-08-18T00:16:57.785Z,6.57
2022-08-18T00:22:06.903Z,6.57
2022-08-18T00:27:16.671Z,6.38
2022-08-18T00:32:25.151Z,6.38
2022-08-18T00:37:33.635Z,6.47
2022-08-18T00:42:42.755Z,6.47
2022-08-18T00:47:51.231Z,6.35
2022-08-18T00:53:01.004Z,6.35
2022-08-18T00:58:10.765Z,6.57
2022-08-18T01:03:25.578Z,6.57
2022-08-18T01:08:29.871Z,6.74
2022-08-18T01:13:38.755Z,6.74
2022-08-18T01:18:47.859Z,6.79
2022-08-18T01:23:56.983Z,6.79
2022-08-18T01:29:06.736Z,6.84
2022-08-18T01:34:14.582Z,6.89
2022-08-18T01:41:31.589Z,6.89
2022-08-18T01:44:33.011Z,6.91
2022-08-18T01:49:42.602Z,6.91
2022-08-18T01:54:51.061Z,7.13
2022-08-18T02:00:00.836Z,7.13
2022-08-18T02:05:09.939Z,7.24
2022-08-18T02:10:19.055Z,7.24
2022-08-18T02:15:28.854Z,7.25
2022-08-18T02:20:37.300Z,7.25
2022-08-18T02:26:15.185Z,7.09
2022-08-18T02:31:31.979Z,7.09
2022-08-18T02:36:46.889Z,7.04
2022-08-18T02:42:03.016Z,7.04
2022-08-18T02:47:18.541Z,7.03
2022-08-18T02:52:35.339Z,7.03
2022-08-18T02:58:01.636Z,6.78
2022-08-18T03:02:15.266Z,6.78
2022-08-18T03:06:59.412Z,7.47
2022-08-18T03:12:09.144Z,7.47
2022-08-18T03:17:17.599Z,7.27
2022-08-18T03:22:32.496Z,7.27
2022-08-18T03:27:35.859Z,7.05
2022-08-18T03:32:46.195Z,7.05
2022-08-18T03:37:54.756Z,6.77
2022-08-18T03:43:03.223Z,6.77
2022-08-18T03:48:11.063Z,6.8
2022-08-18T03:53:20.838Z,6.8
2022-08-18T03:58:28.675Z,6.78
2022-08-18T04:03:38.422Z,6.78
2022-08-18T04:08:48.027Z,6.88
2022-08-18T04:13:56.019Z,6.88
2022-08-18T04:19:05.769Z,7.05
2022-08-18T04:24:15.542Z,7.05
2022-08-18T04:29:24.661Z,7.13
2022-08-18T04:34:34.439Z,7.13
2022-08-18T04:39:43.162Z,7.22
2022-08-18T04:44:50.749Z,7.22
2022-08-18T04:50:02.537Z,7.17
2022-08-18T04:55:08.979Z,7.3
2022-08-18T05:00:18.110Z,7.3
2022-08-18T05:05:26.577Z,7.47
2022-08-18T05:10:36.357Z,7.47
2022-08-18T05:16:28.017Z,7.62
2022-08-18T05:20:54.626Z,7.62
2022-08-18T05:26:03.062Z,7.48
2022-08-18T05:31:14.211Z,7.48
2022-08-18T05:36:20.669Z,7.56
2022-08-18T05:41:29.785Z,7.56
2022-08-18T05:46:39.542Z,7.29
2022-08-18T05:51:48.041Z,7.29
2022-08-18T05:56:57.771Z,7.04
2022-08-18T06:02:06.263Z,7.04
2022-08-18T06:07:14.757Z,7.18
2022-08-18T06:12:24.501Z,7.18
2022-08-18T06:17:32.981Z,7.23
2022-08-18T06:22:56.382Z,7.23
2022-08-18T06:27:53.968Z,7.16
2022-08-18T06:33:02.259Z,7.16
2022-08-18T06:38:10.837Z,6.93
2022-08-18T06:43:20.554Z,6.93
2022-08-18T06:48:30.262Z,6.74
2022-08-18T06:53:38.724Z,6.74
2022-08-18T06:58:53.528Z,6.89
2022-08-18T07:03:57.623Z,6.89
2022-08-18T07:09:07.371Z,6.78
2022-08-18T07:14:17.451Z,6.78
2022-08-18T07:19:24.973Z,6.99
2022-08-18T07:24:34.735Z,6.99
2022-08-18T07:29:44.992Z,7.06
2022-08-18T07:34:54.264Z,7.06
2022-08-18T07:40:02.709Z,6.93
2022-08-18T07:45:11.230Z,6.93
2022-08-18T07:55:28.868Z,6.65
2022-08-18T08:01:01.026Z,6.77
2022-08-18T08:05:46.432Z,6.77
2022-08-18T08:10:56.181Z,6.93
2022-08-18T08:16:05.326Z,6.69
2022-08-18T08:21:15.070Z,6.69
2022-08-18T08:26:24.209Z,6.59
2022-08-18T08:32:03.981Z,6.59
2022-08-18T08:37:19.495Z,6.61
2022-08-18T08:42:40.739Z,6.61
2022-08-18T08:47:48.030Z,6.53
2022-08-18T08:53:04.778Z,6.53
2022-08-18T08:58:20.298Z,6.6
2022-08-18T09:03:58.131Z,6.6
2022-08-18T09:08:49.427Z,6.6
2022-08-18T09:13:14.972Z,6.6
2022-08-18T09:17:56.661Z,6.46
2022-08-18T09:23:06.422Z,6.46
2022-08-18T09:28:17.710Z,6.45
2022-08-18T09:33:25.771Z,6.45
2022-08-18T09:38:35.702Z,6.39
2022-08-18T13:06:19.099Z,6.04
2022-08-18T13:06:58.770Z,6.04
2022-08-18T13:11:38.689Z,5.88
2022-08-18T13:12:10.001Z,5.88
2022-08-18T13:16:55.497Z,5.88
2022-08-18T13:17:34.283Z,5.88
2022-08-18T13:22:12.803Z,5.9
2022-08-18T13:22:41.977Z,5.9
2022-08-18T13:27:38.064Z,5.9
2022-08-18T13:33:59.826Z,5.85
2022-08-18T13:34:15.393Z,5.85
2022-08-18T13:38:28.411Z,5.78
2022-08-18T13:38:45.917Z,5.78
2022-08-18T13:43:30.220Z,5.78
2022-08-18T13:44:00.118Z,5.78
2022-08-18T13:48:48.184Z,5.68
2022-08-18T13:49:18.483Z,5.68
2022-08-18T13:54:35.793Z,5.68
2022-08-18T13:55:38.516Z,5.68
2022-08-18T14:00:49.488Z,5.82
2022-08-18T14:01:53.486Z,5.82
2022-08-18T14:06:08.311Z,5.82
2022-08-18T14:11:33.577Z,5.54
2022-08-18T14:11:56.211Z,5.54
2022-08-18T14:16:42.564Z,5.54
2022-08-18T14:17:12.503Z,5.54
2022-08-18T14:22:19.071Z,5.59
2022-08-18T14:22:49.066Z,5.59
2022-08-18T14:27:36.946Z,5.59
2022-08-18T14:40:23.231Z,5.39
2022-08-18T14:41:13.308Z,5.39
2022-08-18T14:45:38.291Z,5.39
2022-08-18T14:50:52.269Z,5.17
2022-08-18T14:51:42.274Z,5.17
2022-08-18T14:56:22.150Z,5.17
2022-08-18T15:01:45.413Z,5.07
2022-08-18T15:02:13.601Z,5.07
2022-08-18T15:06:58.072Z,5.07
2022-08-18T15:07:34.554Z,5.07
2022-08-18T15:12:20.019Z,5.01
2022-08-18T15:20:02.035Z,4.86
2022-08-18T15:20:28.977Z,4.86
2022-08-18T15:24:43.661Z,4.86
2022-08-18T15:31:48.983Z,4.87
2022-08-18T15:36:16.515Z,4.87
2022-08-18T15:36:47.976Z,4.87
2022-08-18T15:41:56.006Z,4.83
2022-08-18T15:43:18.013Z,4.83
2022-08-18T15:47:21.381Z,4.83
2022-08-18T15:48:35.350Z,4.83
2022-08-18T15:52:44.078Z,4.8
2022-08-18T15:54:50.342Z,4.8
2022-08-18T15:58:28.577Z,4.8
2022-08-18T16:04:30.839Z,4.77
2022-08-18T16:06:10.049Z,4.77
2022-08-18T16:11:30.185Z,4.73
2022-08-18T16:12:00.438Z,4.73
2022-08-18T16:16:36.748Z,4.73
2022-08-18T16:17:31.993Z,4.73
2022-08-18T16:21:56.648Z,4.72
2022-08-18T16:22:26.612Z,4.72
2022-08-18T16:27:14.729Z,4.72
2022-08-18T16:28:35.347Z,4.72
2022-08-18T16:33:29.136Z,4.7
2022-08-18T16:33:59.097Z,4.7
2022-08-18T16:38:47.248Z,4.6
2022-08-18T16:39:13.971Z,4.6
2022-08-18T16:44:02.400Z,4.6
2022-08-18T16:44:32.059Z,4.6
2022-08-18T16:49:20.813Z,4.68
2022-08-18T16:55:07.061Z,4.68
2022-08-18T17:02:27.354Z,4.69
2022-08-18T17:08:14.302Z,4.69
2022-08-18T17:13:23.377Z,4.71
2022-08-18T17:18:35.047Z,4.71
2022-08-18T17:23:45.175Z,4.68
2022-08-18T17:28:55.769Z,4.65
2022-08-18T17:34:03.696Z,4.65
2022-08-18T17:39:16.787Z,4.6
2022-08-18T17:44:31.753Z,4.6
2022-08-18T17:49:48.296Z,4.64
2022-08-18T18:00:20.644Z,4.64
2022-08-18T18:05:36.774Z,4.64
2022-08-18T18:11:04.991Z,4.64
2022-08-18T18:16:07.849Z,4.64
2022-08-18T18:21:23.981Z,4.67
2022-08-18T18:26:39.494Z,4.67
2022-08-18T18:31:05.666Z,4.64
2022-08-18T18:35:55.171Z,4.64
2022-08-18T18:40:59.737Z,4.64
2022-08-18T18:46:08.175Z,4.64
2022-08-18T18:51:38.165Z,4.67
2022-08-18T18:56:28.320Z,4.67
2022-08-18T19:01:37.198Z,4.7
2022-08-18T19:06:46.585Z,4.7
2022-08-18T19:11:55.753Z,4.67
2022-08-18T19:17:05.493Z,4.67
2022-08-18T19:22:19.267Z,4.66
2022-08-18T19:27:24.737Z,4.66
2022-08-18T19:32:33.455Z,4.7
2022-08-18T19:37:44.881Z,4.7
2022-08-18T19:42:53.346Z,4.66
2022-08-18T19:48:03.388Z,4.66
2022-08-18T19:53:13.140Z,4.66
2022-08-18T19:58:22.271Z,4.66
2022-08-18T20:03:32.015Z,4.61
2022-08-18T20:08:40.494Z,4.61
2022-08-18T20:13:48.335Z,4.65
2022-08-18T20:19:00.026Z,4.65
2022-08-18T20:24:09.811Z,4.64
2022-08-18T20:29:18.269Z,4.64
2022-08-18T20:34:26.746Z,4.64
2022-08-18T20:39:36.133Z,4.64
2022-08-18T20:44:46.260Z,4.64
2022-08-18T20:49:56.048Z,4.66
2022-08-18T20:55:12.208Z,4.66
2022-08-18T21:00:27.763Z,4.72
2022-08-18T21:05:32.938Z,4.72
2022-08-18T21:10:47.845Z,4.66
2022-08-18T21:16:02.056Z,4.66
2022-08-18T21:21:19.161Z,4.72
2022-08-18T21:26:32.460Z,4.72
2022-08-18T21:31:48.614Z,4.71
2022-08-18T21:37:04.133Z,4.71
2022-08-18T21:42:20.296Z,4.74
2022-08-18T21:47:36.460Z,4.74
2022-08-18T21:52:53.430Z,4.64
2022-08-18T21:58:08.794Z,4.64
2022-08-18T22:03:24.299Z,4.6
2022-08-18T22:08:54.661Z,4.6
2022-08-18T22:13:05.338Z,4.59
2022-08-18T22:17:50.469Z,4.59
2022-08-18T22:22:54.554Z,4.58
2022-08-18T22:28:04.661Z,4.58
2022-08-18T22:33:14.418Z,4.62
2022-08-18T22:38:24.825Z,4.62
2022-08-18T22:43:35.280Z,4.66
2022-08-18T22:48:44.340Z,4.66
2022-08-18T22:53:52.824Z,4.55
2022-08-18T22:59:20.249Z,4.55
2022-08-18T23:04:09.820Z,4.61
2022-08-18T23:09:18.887Z,4.61
2022-08-18T23:14:27.379Z,4.61
2022-08-18T23:19:37.136Z,4.61
2022-08-18T23:24:46.897Z,4.64
2022-08-18T23:29:57.304Z,4.64
2022-08-18T23:35:07.053Z,4.6
2022-08-18T23:40:15.738Z,4.6
2022-08-18T23:45:24.023Z,4.59
2022-08-18T23:50:33.778Z,4.59
2022-08-18T23:55:45.458Z,4.56
